Flight Track Log - Related Links

Times and Time Zones

All times are in EDT time to prevent confusion due to time zone crossing. See the CTL309 flight status page for this flight to view local times or setup timezone preferences in your user account.

Time Position Orientation Groundspeed Altitude Reporting Facility
EDT Latitude Longitude Course Direction KTS MPH feet Rate Location/Type
Wed 03:32:05 AM 40.0769 -83.1094 264° West 122 140 1,500  Level Indianapolis Center
Wed 03:32:23 AM 40.0758 -83.1228 264° West 129 148 1,900 987 Climbing Indianapolis Center
Wed 03:33:24 AM 40.0586 -83.1617 240° Southwest 116 133 2,800 736 Climbing Indianapolis Center
Wed 03:34:09 AM 40.0483 -83.1814 236° Southwest 120 138 3,200 571 Climbing Indianapolis Center
Wed 03:35:09 AM 40.0314 -83.2156 237° Southwest 115 132 3,800 450 Climbing Indianapolis Center
Wed 03:36:09 AM 40.0156 -83.2481 238° Southwest 110 127 4,100 99 Climbing Indianapolis Center
Wed 03:37:10 AM 39.9989 -83.2814 237° Southwest 108 124 4,000 -50 Descending Indianapolis Center
Wed 03:38:10 AM 39.9822 -83.3156 238° Southwest 110 127 4,000 46 Level Indianapolis Center
Wed 03:39:21 AM 39.9608 -83.3597 238° Southwest 111 128 4,100  Climbing Indianapolis Center
Wed 03:40:10 AM 39.9486 -83.3839 237° Southwest 110 127 4,000  Descending Indianapolis Center
Wed 03:41:10 AM 39.9317 -83.4181 237° Southwest 111 128 4,100  Climbing Indianapolis Center
Wed 03:42:11 AM 39.9144 -83.4519 236° Southwest 112 129 4,000 -50 Descending Indianapolis Center
Wed 03:43:11 AM 39.8989 -83.4853 239° Southwest 110 127 4,000 50 Level Indianapolis Center
Wed 03:44:11 AM 39.8831 -83.5186 238° Southwest 109 125 4,100 50 Climbing Indianapolis Center
Wed 03:45:11 AM 39.8667 -83.5522 238° Southwest 110 127 4,100  Level Indianapolis Center
Wed 03:46:11 AM 39.8497 -83.5856 236° Southwest 110 127 4,100  Level Indianapolis Center
Wed 03:46:26 AM 39.8433 -83.5956 230° Southwest 110 127 4,100  Level Indianapolis Center
Wed 03:47:12 AM 39.8325 -83.6203 240° Southwest 111 128 4,100  Level Indianapolis Center
Wed 03:48:12 AM 39.8156 -83.6542 237° Southwest 112 129 4,100 -80 Level Indianapolis Center
Wed 03:48:27 AM 39.8086 -83.6672 235° Southwest 111 128 4,000  Descending Indianapolis Center
Wed 03:49:12 AM 39.7981 -83.6886 237° Southwest 112 129 4,100 100 Climbing Indianapolis Center
Wed 03:49:27 AM 39.7914 -83.7006 234° Southwest 112 129 4,100 -100 Level Indianapolis Center
Wed 03:50:12 AM 39.7808 -83.7228 238° Southwest 112 129 4,000  Descending Indianapolis Center
Wed 03:50:28 AM 39.7742 -83.7364 237° Southwest 113 130 4,100  Climbing Indianapolis Center
Wed 03:51:12 AM 39.7642 -83.7569 238° Southwest 112 129 4,000 -98 Descending Indianapolis Center
Wed 03:51:29 AM 39.7569 -83.7694 233° Southwest 112 129 4,000  Level Indianapolis Center
Wed 03:52:13 AM 39.7472 -83.7914 240° Southwest 112 129 4,000  Level Indianapolis Center
Wed 03:52:29 AM 39.7419 -83.8028 239° Southwest 111 128 4,000  Level Indianapolis Center
Wed 03:53:13 AM 39.7303 -83.8253 236° Southwest 112 129 4,000 98 Level Indianapolis Center
Wed 03:53:30 AM 39.7247 -83.8358 236° Southwest 110 127 4,100  Climbing Indianapolis Center
Wed 03:54:13 AM 39.7128 -83.8589 236° Southwest 111 128 4,000 -100 Descending Indianapolis Center
Wed 03:54:30 AM 39.7075 -83.8689 236° Southwest 112 129 4,000 100 Level Indianapolis Center
Wed 03:55:13 AM 39.6967 -83.8922 239° Southwest 110 127 4,100 98 Climbing Indianapolis Center
Wed 03:55:31 AM 39.6903 -83.9047 236° Southwest 109 125 4,100 -98 Level Indianapolis Center
Wed 03:56:14 AM 39.6797 -83.9258 237° Southwest 110 127 4,000 -98 Descending Indianapolis Center
Wed 03:56:32 AM 39.6750 -83.9381 243° Southwest 110 127 4,000 100 Level Indianapolis Center
Wed 03:57:14 AM 39.6628 -83.9597 234° Southwest 110 127 4,100  Climbing Indianapolis Center
Wed 03:57:32 AM 39.6558 -83.9708 231° Southwest 111 128 4,000  Descending Indianapolis Center
Wed 03:58:14 AM 39.6456 -83.9931 239° Southwest 111 128 4,100  Climbing Indianapolis Center
Wed 03:58:33 AM 39.6386 -84.0039 230° Southwest 111 128 4,000  Descending Indianapolis Center
Wed 03:59:14 AM 39.6278 -84.0272 239° Southwest 112 129 4,100  Climbing Indianapolis Center
Wed 03:59:33 AM 39.6233 -84.0369 239° Southwest 114 131 4,000  Descending Indianapolis Center
Wed 04:00:15 AM 39.6108 -84.0619 237° Southwest 113 130 4,100  Climbing Indianapolis Center
Wed 04:01:15 AM 39.5933 -84.0961 236° Southwest 113 130 4,000 -50 Descending Indianapolis Center
Wed 04:02:15 AM 39.5753 -84.1303 236° Southwest 114 131 4,000  Level Indianapolis Center
Wed 04:03:15 AM 39.5578 -84.1639 236° Southwest 112 129 4,000  Level Indianapolis Center
Wed 04:04:16 AM 39.5425 -84.1928 236° Southwest 112 129 4,000  Level Indianapolis Center
Wed 04:06:00 AM 39.5056 -84.2450 228° Southwest  Level FlightAware Approximate
Wed 04:13:00 AM 39.3773 -84.4757 229° Southwest  Level FlightAware Approximate
Wed 04:14:00 AM 39.3567 -84.5066 229° Southwest  Level FlightAware Approximate
Wed 04:15:00 AM 39.3500 -84.5167 229° Southwest  Level FlightAware Approximate
Wed 04:16:00 AM 39.3638 -84.5219 229° Southwest  Level Estimated
Wed 04:17:00 AM 39.3638 -84.5219 229° Southwest  Level Estimated
Wed 04:18:00 AM 39.3638 -84.5219 229° Southwest  Level Estimated
Wed 04:19:00 AM 39.3638 -84.5219 229° Southwest  Level Estimated
Wed 04:20:00 AM 39.3638 -84.5219 229° Southwest  Level Estimated
Wed 04:21:00 AM 39.3638 -84.5219 229° Southwest  Level Estimated
Wed 04:22:00 AM 39.3638 -84.5219 229° Southwest  Level Estimated

Login

Don't have an account? Register now (free) for customized features, flight alerts, and more!